Time;durP1;ratioP1;P1;durP2;ratioP2;P2;SDS_P1;SDS_P2;PMS_P1;PMS_P2;Temp;Humidity;BMP_temperature;BMP_pressure;BME280_temperature;BME280_humidity;BME280_pressure;Samples;Min_cycle;Max_cycle;Signal;HPM_P1;HPM_P2
2023/04/21 00:00:28;;;;;;;5.10;4.30;;;;;;;13.79;100.00;100963.38;2080182;28;20493;-64
2023/04/21 00:01:28;;;;;;;7.10;4.87;;;;;;;13.77;100.00;100957.50;2080892;28;20271;-64
2023/04/21 00:02:29;;;;;;;5.93;4.60;;;;;;;13.76;100.00;100963.50;2080307;28;20186;-64
2023/04/21 00:03:32;;;;;;;8.27;4.77;;;;;;;13.37;100.00;100895.09;2079980;28;20645;-64
2023/04/21 00:04:32;;;;;;;7.87;4.60;;;;;;;13.78;100.00;100961.06;2072871;28;20190;-64
2023/04/21 00:05:33;;;;;;;7.03;4.50;;;;;;;13.64;100.00;100937.22;2080061;28;20558;-64
2023/04/21 00:06:33;;;;;;;8.87;4.53;;;;;;;13.79;100.00;100955.03;2080113;28;20192;-63
2023/04/21 00:07:36;;;;;;;5.73;4.70;;;;;;;13.71;100.00;100959.28;2080369;28;20280;-64
2023/04/21 00:08:39;;;;;;;5.23;4.63;;;;;;;13.65;100.00;100947.13;2080576;28;20633;-64
2023/04/21 00:09:39;;;;;;;6.03;4.40;;;;;;;13.67;100.00;100939.09;2080191;28;20496;-64
2023/04/21 00:10:40;;;;;;;6.27;4.53;;;;;;;13.31;100.00;100879.38;2080283;28;20416;-63
2023/04/21 00:11:40;;;;;;;5.57;4.63;;;;;;;13.74;100.00;100947.22;2080474;28;20715;-64
2023/04/21 00:12:41;;;;;;;6.20;4.77;;;;;;;13.62;100.00;100944.47;2080611;28;20197;-63
2023/04/21 00:13:41;;;;;;;5.87;4.30;;;;;;;13.61;100.00;100948.44;2072689;28;20192;-64
2023/04/21 00:14:42;;;;;;;6.27;4.97;;;;;;;13.65;100.00;100952.72;2079030;28;20191;-64
2023/04/21 00:15:42;;;;;;;7.10;5.03;;;;;;;13.51;100.00;100927.28;2080364;28;20654;-65
2023/04/21 00:16:43;;;;;;;7.67;5.30;;;;;;;13.63;100.00;100944.00;2080128;28;20234;-64
2023/04/21 00:17:43;;;;;;;6.73;5.00;;;;;;;13.54;100.00;100940.31;2076823;28;20282;-64
2023/04/21 00:18:44;;;;;;;5.77;4.60;;;;;;;13.62;100.00;100944.47;2077560;28;20573;-64
2023/04/21 00:19:44;;;;;;;6.13;4.83;;;;;;;13.65;100.00;100949.13;2081657;28;20674;-64
2023/04/21 00:20:45;;;;;;;8.03;4.90;;;;;;;13.60;100.00;100953.25;2082172;28;20565;-64
2023/04/21 00:21:45;;;;;;;6.10;4.67;;;;;;;13.63;100.00;100948.81;2081574;28;20295;-64
2023/04/21 00:22:46;;;;;;;5.67;4.83;;;;;;;13.40;100.00;100924.06;2081500;28;20200;-64
2023/04/21 00:23:48;;;;;;;5.77;4.70;;;;;;;13.56;100.00;100949.00;2081335;28;20227;-64
2023/04/21 00:24:49;;;;;;;6.37;4.57;;;;;;;13.60;100.00;100950.47;2081983;28;20230;-64
2023/04/21 00:25:49;;;;;;;10.03;4.77;;;;;;;12.61;100.00;100807.16;2081965;28;20472;-64
2023/04/21 00:26:50;;;;;;;5.50;4.87;;;;;;;13.33;100.00;100907.56;2082190;28;20180;-64
2023/04/21 00:27:50;;;;;;;6.33;4.97;;;;;;;13.52;100.00;100940.78;2081432;28;20178;-65
2023/04/21 00:28:51;;;;;;;7.53;4.43;;;;;;;13.02;100.00;100857.22;2082396;28;20226;-64
2023/04/21 00:29:51;;;;;;;4.80;4.27;;;;;;;13.62;100.00;100953.59;2082171;28;20570;-65
2023/04/21 00:30:53;;;;;;;5.87;4.93;;;;;;;13.56;100.00;100957.34;2081499;28;20609;-64
2023/04/21 00:31:53;;;;;;;6.17;5.20;;;;;;;13.52;100.00;100956.72;2082106;28;20188;-64
2023/04/21 00:32:54;;;;;;;5.97;4.77;;;;;;;13.54;100.00;100951.47;2081663;28;20461;-64
2023/04/21 00:33:55;;;;;;;9.43;5.03;;;;;;;13.55;100.00;100958.59;2082038;28;20276;-64
2023/04/21 00:34:55;;;;;;;8.23;5.43;;;;;;;13.57;100.00;100948.56;2082171;28;20419;-64
2023/04/21 00:35:57;;;;;;;7.53;4.90;;;;;;;13.52;100.00;100957.47;2081809;28;20233;-64
2023/04/21 00:36:58;;;;;;;7.73;4.90;;;;;;;13.53;100.00;100961.81;2082307;28;20230;-64
2023/04/21 00:37:58;;;;;;;6.20;4.60;;;;;;;13.53;100.00;100956.25;2082000;28;20501;-64
2023/04/21 00:38:59;;;;;;;8.03;5.10;;;;;;;13.53;100.00;100955.47;2081938;28;20184;-64
2023/04/21 00:39:59;;;;;;;6.63;4.93;;;;;;;13.51;100.00;100949.56;2081779;28;20275;-64
2023/04/21 00:41:00;;;;;;;5.77;4.40;;;;;;;13.50;100.00;100948.00;2077045;28;20204;-64
2023/04/21 00:42:00;;;;;;;5.77;4.50;;;;;;;13.47;100.00;100957.25;2077157;28;20180;-64
2023/04/21 00:43:05;;;;;;;5.67;5.13;;;;;;;13.47;100.00;100951.69;2081999;28;20178;-64
2023/04/21 00:44:07;;;;;;;5.77;4.73;;;;;;;13.28;100.00;100933.19;2082191;28;20185;-64
2023/04/21 00:45:08;;;;;;;8.53;5.30;;;;;;;12.97;100.00;100885.59;2081600;28;20425;-64
2023/04/21 00:46:08;;;;;;;5.83;4.97;;;;;;;13.47;100.00;100957.25;2082138;28;20416;-63
2023/04/21 00:47:09;;;;;;;5.93;4.87;;;;;;;13.38;100.00;100955.09;2082111;28;20191;-64
2023/04/21 00:48:10;;;;;;;9.07;5.10;;;;;;;13.42;100.00;100955.03;2081668;28;20319;-64
2023/04/21 00:49:12;;;;;;;5.73;4.60;;;;;;;13.30;100.00;100939.06;2081948;28;20225;-64
2023/04/21 00:50:12;;;;;;;6.07;4.70;;;;;;;13.34;100.00;100964.81;2081823;28;20445;-64
2023/04/21 00:51:13;;;;;;;7.70;5.20;;;;;;;13.21;100.00;100947.31;2081690;28;20426;-64
2023/04/21 00:52:16;;;;;;;6.70;5.20;;;;;;;13.31;100.00;100955.34;2081288;28;20309;-64
2023/04/21 00:53:18;;;;;;;5.43;4.50;;;;;;;13.34;100.00;100960.03;2081882;28;20230;-64
2023/04/21 00:54:22;;;;;;;6.27;4.97;;;;;;;12.92;100.00;100896.47;2081517;28;20416;-64
2023/04/21 00:55:23;;;;;;;6.63;4.80;;;;;;;13.24;100.00;100941.63;2081972;28;20435;-65
2023/04/21 00:56:25;;;;;;;6.57;4.63;;;;;;;12.90;100.00;100890.53;2081802;28;20447;-64
2023/04/21 00:57:27;;;;;;;5.23;4.67;;;;;;;13.24;100.00;100960.31;2081304;28;20480;-64
2023/04/21 00:58:27;;;;;;;6.70;4.90;;;;;;;13.18;100.00;100951.75;2082008;28;20432;-64
2023/04/21 00:59:29;;;;;;;7.37;5.07;;;;;;;12.50;100.00;100847.63;2081572;28;21085;-64
2023/04/21 01:00:29;;;;;;;7.00;5.20;;;;;;;12.84;100.00;100909.00;2081756;28;20666;-64
2023/04/21 01:01:33;;;;;;;7.43;5.00;;;;;;;13.13;100.00;100959.88;2081482;28;23626;-64
2023/04/21 01:02:35;;;;;;;6.43;5.23;;;;;;;13.17;100.00;100946.63;2081721;28;20176;-64
2023/04/21 01:03:35;;;;;;;8.77;4.73;;;;;;;13.19;100.00;100949.75;2081657;28;20424;-64
2023/04/21 01:04:38;;;;;;;6.33;5.00;;;;;;;13.14;100.00;100953.84;2082121;28;20421;-65
2023/04/21 01:05:38;;;;;;;8.50;5.50;;;;;;;13.14;100.00;100948.28;2073538;28;20223;-64
2023/04/21 01:06:40;;;;;;;8.63;5.20;;;;;;;13.12;100.00;100955.53;2080635;28;20496;-63
2023/04/21 01:07:41;;;;;;;7.77;5.20;;;;;;;12.49;100.00;100857.97;2081975;28;20187;-64
2023/04/21 01:08:42;;;;;;;6.27;5.00;;;;;;;13.12;100.00;100949.97;2081506;28;20440;-65
2023/04/21 01:09:43;;;;;;;6.03;4.80;;;;;;;13.15;100.00;100952.63;2081804;28;20216;-64
2023/04/21 01:10:43;;;;;;;7.17;5.53;;;;;;;12.93;100.00;100923.84;2081288;28;20449;-64
2023/04/21 01:12:04;;;;;;;6.90;5.30;;;;;;;13.06;100.00;100952.50;2081493;28;20197;-65
2023/04/21 01:13:05;;;;;;;7.43;5.23;;;;;;;13.08;100.00;100949.28;2077204;28;20336;-64
2023/04/21 01:14:06;;;;;;;6.90;5.33;;;;;;;12.99;100.00;100947.13;2081419;28;20454;-64
2023/04/21 01:15:07;;;;;;;6.60;4.93;;;;;;;12.95;100.00;100949.22;2081721;28;20176;-64
2023/04/21 01:16:07;;;;;;;8.97;4.70;;;;;;;12.90;100.00;100932.25;2081515;28;20182;-64
2023/04/21 01:17:08;;;;;;;7.80;5.33;;;;;;;12.96;100.00;100948.00;2073843;28;20452;-64
2023/04/21 01:18:08;;;;;;;8.73;5.70;;;;;;;12.88;100.00;100946.63;2079266;28;20199;-64
2023/04/21 01:19:10;;;;;;;7.40;5.60;;;;;;;12.92;100.00;100947.28;2079497;28;20319;-64
2023/04/21 01:20:13;;;;;;;6.13;5.53;;;;;;;12.91;100.00;100937.38;2081702;28;20709;-64
2023/04/21 01:21:15;;;;;;;7.03;5.30;;;;;;;12.18;100.00;100823.50;2081577;28;20818;-64
2023/04/21 01:22:15;;;;;;;7.00;5.10;;;;;;;12.97;100.00;100940.44;2081496;28;20451;-64
2023/04/21 01:23:17;;;;;;;6.90;5.40;;;;;;;13.00;100.00;100947.91;2081392;28;20970;-64
2023/04/21 01:24:18;;;;;;;7.47;5.70;;;;;;;12.97;100.00;100944.00;2081592;28;20193;-64
2023/04/21 01:25:22;;;;;;;8.37;5.60;;;;;;;12.94;100.00;100941.28;2081921;28;20471;-64
2023/04/21 01:26:22;;;;;;;9.23;5.47;;;;;;;12.89;100.00;100941.84;2073624;28;20498;-64
2023/04/21 01:27:24;;;;;;;8.07;5.53;;;;;;;12.69;100.00;100905.06;2073446;28;20511;-65
2023/04/21 01:28:25;;;;;;;5.93;5.20;;;;;;;12.20;100.00;100836.94;2073355;28;20196;-65
2023/04/21 01:29:25;;;;;;;7.73;5.63;;;;;;;12.87;100.00;100942.28;2078945;28;20444;-64
2023/04/21 01:30:26;;;;;;;9.33;5.60;;;;;;;12.84;100.00;100939.59;2081257;28;20216;-64
2023/04/21 01:31:26;;;;;;;7.10;5.80;;;;;;;12.80;100.00;100936.91;2080639;28;20662;-65
2023/04/21 01:32:28;;;;;;;10.90;6.10;;;;;;;12.81;100.00;100935.69;2080912;28;20203;-64
2023/04/21 01:33:29;;;;;;;7.63;6.00;;;;;;;12.80;100.00;100934.13;2081594;28;20184;-64
2023/04/21 01:34:29;;;;;;;9.90;6.17;;;;;;;12.76;100.00;100943.81;2081940;28;20426;-63
2023/04/21 01:35:30;;;;;;;7.57;5.23;;;;;;;12.71;100.00;100945.09;2081086;28;20239;-63
2023/04/21 01:36:30;;;;;;;8.80;5.90;;;;;;;12.23;100.00;100877.72;2081671;28;20627;-65
2023/04/21 01:37:32;;;;;;;11.87;5.90;;;;;;;12.67;100.00;100946.44;2080713;28;20223;-64
2023/04/21 01:38:32;;;;;;;8.13;6.30;;;;;;;12.62;100.00;100944.97;2080834;28;20676;-65
2023/04/21 01:39:32;;;;;;;10.13;6.77;;;;;;;12.14;100.00;100881.13;2081242;28;20901;-64
2023/04/21 01:40:33;;;;;;;9.40;6.90;;;;;;;12.59;100.00;100961.72;2081299;28;20176;-65
2023/04/21 01:41:33;;;;;;;10.40;6.60;;;;;;;12.59;100.00;100948.63;2081181;28;20208;-64
2023/04/21 01:42:37;;;;;;;8.60;6.90;;;;;;;12.51;100.00;100936.13;2081615;28;20177;-64
2023/04/21 01:43:38;;;;;;;7.70;6.87;;;;;;;12.55;100.00;100950.72;2073797;28;20182;-64
2023/04/21 01:44:39;;;;;;;8.07;6.90;;;;;;;12.50;100.00;100951.25;2080511;28;20447;-64
2023/04/21 01:45:39;;;;;;;10.07;6.40;;;;;;;12.48;100.00;100947.34;2081432;28;20238;-65
2023/04/21 01:46:40;;;;;;;12.20;6.40;;;;;;;12.42;100.00;100941.53;2081370;28;20196;-64
2023/04/21 01:47:40;;;;;;;9.20;7.07;;;;;;;12.40;100.00;100954.31;2081337;28;20201;-64
2023/04/21 01:48:40;;;;;;;8.27;6.27;;;;;;;12.33;100.00;100954.47;2081668;28;20200;-64
2023/04/21 01:49:41;;;;;;;9.83;6.23;;;;;;;12.26;100.00;100951.88;2080999;28;20182;-64
2023/04/21 01:50:42;;;;;;;10.30;6.10;;;;;;;12.28;100.00;100958.56;2081089;28;20263;-65
2023/04/21 01:51:42;;;;;;;8.87;6.67;;;;;;;12.26;100.00;100960.22;2081550;28;20184;-64
2023/04/21 01:52:43;;;;;;;9.07;5.90;;;;;;;12.20;100.00;100945.31;2081531;28;20661;-64
2023/04/21 01:53:43;;;;;;;8.83;6.50;;;;;;;11.35;100.00;100820.84;2081057;28;20204;-64
2023/04/21 01:54:44;;;;;;;10.13;6.83;;;;;;;12.16;100.00;100948.19;2081375;28;20185;-63
2023/04/21 01:55:44;;;;;;;8.57;6.07;;;;;;;12.22;100.00;100946.44;2077185;28;20653;-64
2023/04/21 01:56:44;;;;;;;9.27;6.03;;;;;;;12.04;100.00;100934.97;2076238;28;20312;-64
2023/04/21 01:57:45;;;;;;;9.50;6.40;;;;;;;12.17;100.00;100958.06;2081207;28;20176;-64
2023/04/21 01:58:45;;;;;;;9.63;6.43;;;;;;;12.21;100.00;100958.78;2081320;28;20203;-64
2023/04/21 01:59:47;;;;;;;12.80;7.60;;;;;;;12.21;100.00;100957.97;2081509;28;20264;-64
2023/04/21 02:00:47;;;;;;;9.30;6.43;;;;;;;12.25;100.00;100955.91;2080849;28;20322;-64
2023/04/21 02:01:48;;;;;;;8.10;7.03;;;;;;;12.26;100.00;100949.91;2081475;28;20428;-64
2023/04/21 02:02:48;;;;;;;8.03;6.63;;;;;;;12.27;100.00;100957.03;2080834;28;20588;-64
2023/04/21 02:03:48;;;;;;;8.73;6.67;;;;;;;12.27;100.00;100953.44;2081161;28;20271;-64
2023/04/21 02:04:49;;;;;;;9.27;6.50;;;;;;;12.29;100.00;100951.78;2081416;28;20185;-64
2023/04/21 02:05:50;;;;;;;9.50;6.77;;;;;;;12.31;100.00;100970.81;2080965;28;20303;-63
2023/04/21 02:06:50;;;;;;;8.73;6.53;;;;;;;12.27;100.00;100945.91;2081295;28;20181;-64
2023/04/21 02:07:50;;;;;;;8.10;6.33;;;;;;;12.23;100.00;100944.41;2081629;28;20217;-64
2023/04/21 02:08:51;;;;;;;8.50;6.57;;;;;;;12.23;100.00;100945.22;2081158;28;20185;-64
2023/04/21 02:09:51;;;;;;;8.90;6.43;;;;;;;12.27;100.00;100945.09;2081355;28;20189;-64
2023/04/21 02:10:52;;;;;;;7.90;6.13;;;;;;;12.28;100.00;100946.66;2081057;28;20186;-63
2023/04/21 02:11:54;;;;;;;8.83;6.13;;;;;;;12.18;100.00;100937.41;2080691;28;20660;-64
2023/04/21 02:12:55;;;;;;;9.17;6.27;;;;;;;12.22;100.00;100945.63;2076299;28;20222;-64
2023/04/21 02:13:55;;;;;;;8.87;6.37;;;;;;;12.21;100.00;100941.31;2080511;28;20477;-64
2023/04/21 02:14:55;;;;;;;9.00;6.13;;;;;;;12.18;100.00;100948.50;2081280;28;20191;-63
2023/04/21 02:15:56;;;;;;;10.00;6.80;;;;;;;12.23;100.00;100952.75;2076124;28;20550;-65
2023/04/21 02:16:56;;;;;;;7.50;6.27;;;;;;;12.25;100.00;100942.00;2080430;28;20276;-64
2023/04/21 02:17:57;;;;;;;8.80;6.10;;;;;;;12.23;100.00;100938.84;2081340;28;20225;-64
2023/04/21 02:18:58;;;;;;;8.30;6.10;;;;;;;11.46;100.00;100822.16;2081020;28;20651;-64
2023/04/21 02:19:59;;;;;;;9.53;6.50;;;;;;;12.16;100.00;100944.59;2081318;28;20682;-64
2023/04/21 02:20:59;;;;;;;10.60;6.40;;;;;;;12.17;100.00;100940.59;2080622;28;20846;-64
2023/04/21 02:21:59;;;;;;;9.17;6.40;;;;;;;12.18;100.00;100937.41;2081179;28;20544;-64
2023/04/21 02:23:00;;;;;;;8.57;5.97;;;;;;;12.19;100.00;100941.72;2080942;28;20180;-64
2023/04/21 02:24:00;;;;;;;7.57;5.87;;;;;;;12.16;100.00;100936.28;2081469;28;20174;-64
2023/04/21 02:25:01;;;;;;;8.67;6.23;;;;;;;12.11;100.00;100920.13;2081273;28;20198;-63
2023/04/21 02:26:01;;;;;;;8.10;5.90;;;;;;;12.17;100.00;100941.41;2080283;28;20643;-64
2023/04/21 02:27:02;;;;;;;11.80;6.20;;;;;;;12.18;100.00;100939.38;2081027;28;20194;-64
2023/04/21 02:28:02;;;;;;;7.90;5.97;;;;;;;11.74;100.00;100859.56;2080982;28;20212;-64
2023/04/21 02:29:03;;;;;;;8.87;5.73;;;;;;;12.23;100.00;100936.88;2081237;28;20189;-65
2023/04/21 02:30:04;;;;;;;7.13;5.43;;;;;;;12.24;100.00;100935.66;2080615;28;20216;-64
2023/04/21 02:31:04;;;;;;;7.93;5.77;;;;;;;11.67;100.00;100843.06;2080861;28;20183;-64
2023/04/21 02:32:05;;;;;;;8.63;5.90;;;;;;;12.23;100.00;100936.88;2081171;28;20430;-64
2023/04/21 02:33:05;;;;;;;14.50;6.57;;;;;;;12.27;100.00;100939.56;2080908;28;20579;-64
2023/04/21 02:34:06;;;;;;;7.13;5.80;;;;;;;12.19;100.00;100927.06;2081107;28;20247;-64
2023/04/21 02:35:07;;;;;;;8.40;5.63;;;;;;;12.25;100.00;100933.66;2080988;28;20181;-64
2023/04/21 02:36:07;;;;;;;8.10;6.07;;;;;;;12.23;100.00;100930.53;2076504;28;20272;-64
2023/04/21 02:37:08;;;;;;;13.73;6.17;;;;;;;12.26;100.00;100941.56;2076070;28;20282;-64
2023/04/21 02:38:09;;;;;;;10.40;6.23;;;;;;;12.28;100.00;100938.34;2080883;28;20568;-64
2023/04/21 02:39:09;;;;;;;7.97;5.60;;;;;;;12.26;100.00;100940.78;2080405;28;20221;-64
2023/04/21 02:40:10;;;;;;;10.60;5.83;;;;;;;12.25;100.00;100939.97;2081356;28;20170;-64
2023/04/21 02:41:10;;;;;;;6.90;5.80;;;;;;;12.18;100.00;100945.72;2080986;28;20225;-64
2023/04/21 02:42:11;;;;;;;12.80;7.33;;;;;;;12.19;100.00;100936.19;2080345;28;20201;-64
2023/04/21 02:43:15;;;;;;;13.87;6.67;;;;;;;12.22;100.00;100938.09;2081295;28;20187;-63
2023/04/21 02:44:15;;;;;;;9.93;6.03;;;;;;;12.23;100.00;100942.44;2080894;28;20661;-65
2023/04/21 02:45:16;;;;;;;8.43;6.17;;;;;;;12.18;100.00;100926.28;2080843;28;20530;-65
2023/04/21 02:46:16;;;;;;;11.63;6.40;;;;;;;12.23;100.00;100941.63;2080528;28;20178;-64
2023/04/21 02:47:17;;;;;;;12.83;6.50;;;;;;;11.87;100.00;100877.88;2081172;28;20254;-64
2023/04/21 02:48:21;;;;;;;8.13;5.63;;;;;;;12.20;100.00;100934.94;2080928;28;20660;-64
2023/04/21 02:49:22;;;;;;;10.00;6.17;;;;;;;11.91;100.00;100891.66;2081339;28;20174;-64
2023/04/21 02:50:22;;;;;;;7.00;5.93;;;;;;;12.07;100.00;100936.88;2080540;28;20982;-64
2023/04/21 02:51:23;;;;;;;10.83;6.03;;;;;;;12.07;100.00;100934.09;2081002;28;20572;-63
2023/04/21 02:52:23;;;;;;;8.20;5.70;;;;;;;12.07;100.00;100930.53;2080694;28;20593;-64
2023/04/21 02:53:24;;;;;;;7.97;5.87;;;;;;;12.07;100.00;100934.09;2080803;28;20220;-64
2023/04/21 02:54:24;;;;;;;6.90;5.50;;;;;;;12.00;100.00;100928.72;2080909;28;20185;-64
2023/04/21 02:55:25;;;;;;;10.37;6.07;;;;;;;12.05;100.00;100936.53;2080812;28;20210;-65
2023/04/21 02:56:25;;;;;;;12.47;5.93;;;;;;;11.19;100.00;100807.75;2081133;28;20187;-64
2023/04/21 02:57:25;;;;;;;8.40;5.73;;;;;;;11.98;100.00;100933.94;2081187;28;20166;-64
2023/04/21 02:58:26;;;;;;;8.57;5.73;;;;;;;11.86;100.00;100925.50;2080804;28;20226;-64
2023/04/21 02:59:26;;;;;;;8.53;5.83;;;;;;;11.98;100.00;100924.81;2074551;28;20214;-64
2023/04/21 03:00:27;;;;;;;7.90;5.77;;;;;;;11.97;100.00;100931.59;2077750;28;20480;-64
2023/04/21 03:01:27;;;;;;;7.70;5.63;;;;;;;12.03;100.00;100933.41;2080289;28;20206;-63
2023/04/21 03:02:27;;;;;;;9.63;5.60;;;;;;;12.00;100.00;100927.94;2080765;28;20280;-64
2023/04/21 03:03:29;;;;;;;8.20;5.70;;;;;;;12.03;100.00;100935.41;2080958;28;20187;-65
2023/04/21 03:04:31;;;;;;;7.07;6.03;;;;;;;12.04;100.00;100936.97;2080196;28;20236;-64
2023/04/21 03:05:31;;;;;;;10.10;5.80;;;;;;;12.03;100.00;100932.63;2080153;28;20471;-63
2023/04/21 03:06:32;;;;;;;7.90;5.50;;;;;;;11.65;100.00;100885.19;2080619;28;20469;-64
2023/04/21 03:07:33;;;;;;;9.37;6.87;;;;;;;12.01;100.00;100940.63;2080882;28;20244;-63
2023/04/21 03:08:33;;;;;;;9.73;6.23;;;;;;;12.01;100.00;100952.53;2081061;28;20556;-64
2023/04/21 03:09:34;;;;;;;9.20;5.93;;;;;;;12.03;100.00;100949.28;2080745;28;20186;-64
2023/04/21 03:10:36;;;;;;;6.37;5.60;;;;;;;11.58;100.00;100879.75;2080718;28;20608;-63
2023/04/21 03:11:37;;;;;;;6.97;5.80;;;;;;;12.04;100.00;100942.53;2080622;28;20431;-63
2023/04/21 03:12:37;;;;;;;6.97;6.03;;;;;;;12.06;100.00;100942.88;2080558;28;20509;-63
2023/04/21 03:13:37;;;;;;;8.07;5.70;;;;;;;11.57;100.00;100878.19;2080790;28;20182;-64
2023/04/21 03:14:38;;;;;;;7.57;5.83;;;;;;;12.04;100.00;100943.31;2080422;28;20179;-63
2023/04/21 03:15:38;;;;;;;8.50;5.87;;;;;;;12.08;100.00;100940.44;2079889;28;20200;-64
2023/04/21 03:16:39;;;;;;;7.40;6.00;;;;;;;12.07;100.00;100942.44;2080728;28;20189;-63
2023/04/21 03:17:40;;;;;;;7.17;5.97;;;;;;;11.42;100.00;100843.66;2080781;28;20195;-64
2023/04/21 03:18:40;;;;;;;7.30;5.77;;;;;;;12.12;100.00;100944.69;2080802;28;20969;-64
2023/04/21 03:19:41;;;;;;;7.63;6.23;;;;;;;12.15;100.00;100946.59;2080538;28;20961;-64
2023/04/21 03:20:41;;;;;;;8.80;6.27;;;;;;;12.16;100.00;100945.41;2080829;28;20669;-64
2023/04/21 03:21:41;;;;;;;13.37;6.27;;;;;;;12.14;100.00;100947.06;2080961;28;20197;-64
2023/04/21 03:22:42;;;;;;;8.77;6.00;;;;;;;12.14;100.00;100945.03;2080447;28;20738;-64
2023/04/21 03:23:42;;;;;;;14.63;6.07;;;;;;;12.15;100.00;100946.59;2080937;28;20650;-64
2023/04/21 03:24:43;;;;;;;9.10;5.80;;;;;;;12.16;100.00;100945.41;2080776;28;20221;-64
2023/04/21 03:25:43;;;;;;;12.13;6.17;;;;;;;12.15;100.00;100943.06;2080588;28;20206;-64
2023/04/21 03:26:43;;;;;;;8.73;6.13;;;;;;;12.17;100.00;100944.19;2080554;28;20268;-63
2023/04/21 03:27:44;;;;;;;12.77;6.03;;;;;;;12.16;100.00;100945.41;2080143;28;20181;-64
2023/04/21 03:28:44;;;;;;;7.13;6.20;;;;;;;12.12;100.00;100944.69;2080697;28;20181;-63
2023/04/21 03:29:45;;;;;;;7.60;6.07;;;;;;;12.07;100.00;100939.66;2080945;28;20197;-63
2023/04/21 03:30:45;;;;;;;9.20;5.93;;;;;;;12.14;100.00;100944.28;2079648;28;20197;-63
2023/04/21 03:31:46;;;;;;;8.50;5.93;;;;;;;12.11;100.00;100945.13;2080681;28;20275;-64
2023/04/21 03:32:46;;;;;;;10.07;6.60;;;;;;;11.34;100.00;100833.16;2080365;28;20268;-65
2023/04/21 03:33:46;;;;;;;9.50;6.47;;;;;;;11.95;100.00;100931.25;2080764;28;20183;-64
2023/04/21 03:34:49;;;;;;;8.90;6.60;;;;;;;12.07;100.00;100958.31;2080460;28;20180;-64
2023/04/21 03:35:49;;;;;;;9.10;6.03;;;;;;;12.04;100.00;100957.19;2080258;28;20241;-63
2023/04/21 03:36:49;;;;;;;10.20;5.73;;;;;;;12.03;100.00;100943.72;2080341;28;20478;-63
2023/04/21 03:37:50;;;;;;;8.73;6.17;;;;;;;12.04;100.00;100951.63;2080974;28;20206;-64
2023/04/21 03:38:50;;;;;;;9.63;5.93;;;;;;;12.06;100.00;100962.31;2080680;28;20591;-63
2023/04/21 03:39:51;;;;;;;8.43;6.50;;;;;;;12.02;100.00;100940.19;2080586;28;20580;-64
2023/04/21 03:40:51;;;;;;;10.30;6.20;;;;;;;12.08;100.00;100951.53;2080226;28;20197;-64
2023/04/21 03:41:52;;;;;;;10.40;6.43;;;;;;;11.99;100.00;100943.06;2080434;28;20200;-64
2023/04/21 03:42:52;;;;;;;7.67;5.90;;;;;;;12.07;100.00;100953.56;2080896;28;20182;-64
2023/04/21 03:43:52;;;;;;;12.10;6.80;;;;;;;12.07;100.00;100950.78;2080514;28;20249;-64
2023/04/21 03:44:53;;;;;;;9.90;6.27;;;;;;;12.08;100.00;100957.88;2080736;28;20191;-65
2023/04/21 03:45:53;;;;;;;9.97;6.37;;;;;;;11.90;100.00;100942.88;2080809;28;20205;-64
2023/04/21 03:46:54;;;;;;;8.03;6.30;;;;;;;12.03;100.00;100960.41;2080167;28;20202;-64
2023/04/21 03:47:55;;;;;;;10.60;6.80;;;;;;;12.05;100.00;100963.53;2080935;28;20312;-64
2023/04/21 03:48:56;;;;;;;11.37;6.93;;;;;;;12.05;100.00;100967.06;2080784;28;20201;-64
2023/04/21 03:49:56;;;;;;;12.30;6.80;;;;;;;12.03;100.00;100963.97;2080698;28;20526;-64
2023/04/21 03:50:56;;;;;;;11.50;6.03;;;;;;;12.00;100.00;100964.81;2080128;28;20191;-64
2023/04/21 03:51:57;;;;;;;11.00;5.80;;;;;;;11.63;100.00;100917.34;2080552;28;20195;-64
2023/04/21 03:52:57;;;;;;;11.63;6.93;;;;;;;11.91;100.00;100964.66;2080543;28;20173;-63
2023/04/21 03:53:58;;;;;;;11.23;7.20;;;;;;;11.92;100.00;100968.22;2081001;28;20185;-63
2023/04/21 03:54:58;;;;;;;8.80;6.67;;;;;;;11.91;100.00;100963.88;2082118;28;20213;-64
2023/04/21 03:55:59;;;;;;;9.47;6.07;;;;;;;11.94;100.00;100961.00;2081915;28;20197;-64
2023/04/21 03:56:59;;;;;;;11.13;6.30;;;;;;;11.98;100.00;100972.03;2082474;28;20278;-64
2023/04/21 03:57:59;;;;;;;7.70;6.57;;;;;;;11.98;100.00;100972.03;2078142;28;20194;-64
2023/04/21 03:59:00;;;;;;;8.53;6.30;;;;;;;11.96;100.00;100966.94;2077116;28;20405;-65
2023/04/21 04:00:00;;;;;;;10.17;6.17;;;;;;;12.03;100.00;100979.84;2082134;28;20182;-63
2023/04/21 04:01:01;;;;;;;7.47;6.43;;;;;;;12.04;100.00;100973.84;2081473;28;20607;-64
2023/04/21 04:02:01;;;;;;;9.30;6.10;;;;;;;12.03;100.00;100974.28;2074250;28;20198;-64
2023/04/21 04:03:02;;;;;;;8.90;6.03;;;;;;;12.06;100.00;100971.44;2074263;28;20277;-64
2023/04/21 04:04:02;;;;;;;10.30;6.40;;;;;;;12.11;100.00;100979.25;2080772;28;20263;-64
2023/04/21 04:05:04;;;;;;;9.07;6.37;;;;;;;12.09;100.00;100973.34;2082030;28;20283;-63
2023/04/21 04:06:04;;;;;;;6.57;5.87;;;;;;;12.10;100.00;100969.34;2082255;28;20177;-64
2023/04/21 04:07:06;;;;;;;7.17;5.90;;;;;;;12.16;100.00;100975.16;2082123;28;20503;-64
2023/04/21 04:08:06;;;;;;;8.90;6.00;;;;;;;12.12;100.00;100972.47;2082597;28;20318;-64
2023/04/21 04:09:07;;;;;;;8.67;5.73;;;;;;;12.18;100.00;100979.06;2082179;28;20412;-64
2023/04/21 04:10:08;;;;;;;9.43;6.37;;;;;;;12.17;100.00;100979.50;2081972;28;20651;-64
2023/04/21 04:11:08;;;;;;;9.90;6.27;;;;;;;12.06;100.00;100960.34;2082253;28;20863;-64
2023/04/21 04:12:09;;;;;;;7.93;5.93;;;;;;;12.16;100.00;100989.84;2081701;28;20191;-64
2023/04/21 04:13:09;;;;;;;7.93;6.20;;;;;;;12.18;100.00;100983.84;2082507;28;20386;-64
2023/04/21 04:14:09;;;;;;;8.27;6.00;;;;;;;12.24;100.00;100979.34;2081929;28;20258;-64
2023/04/21 04:15:10;;;;;;;10.73;6.40;;;;;;;11.91;100.00;100919.44;2082126;28;20224;-64
2023/04/21 04:16:10;;;;;;;10.53;6.10;;;;;;;12.27;100.00;100975.69;2082063;28;20185;-65
2023/04/21 04:17:11;;;;;;;10.53;6.40;;;;;;;12.33;100.00;100979.50;2082147;28;20274;-64
2023/04/21 04:18:11;;;;;;;17.77;7.17;;;;;;;12.38;100.00;100973.41;2082377;28;20180;-64
2023/04/21 04:19:11;;;;;;;8.93;6.30;;;;;;;12.31;100.00;100965.25;2082017;28;20295;-64
2023/04/21 04:20:12;;;;;;;15.43;7.00;;;;;;;12.13;100.00;100942.69;2081478;28;20192;-64
2023/04/21 04:21:12;;;;;;;22.57;8.33;;;;;;;12.38;100.00;100971.41;2078796;28;20189;-64
2023/04/21 04:22:13;;;;;;;14.97;9.20;;;;;;;12.42;100.00;100968.53;2077086;28;20403;-64
2023/04/21 04:23:13;;;;;;;33.43;15.00;;;;;;;12.32;100.00;100955.69;2075658;28;20200;-64
2023/04/21 04:24:14;;;;;;;23.40;11.73;;;;;;;12.50;100.00;100976.25;2076691;28;20210;-64
2023/04/21 04:25:15;;;;;;;24.07;12.10;;;;;;;12.52;100.00;100982.19;2077167;28;20216;-63
2023/04/21 04:26:16;;;;;;;25.23;11.57;;;;;;;12.22;100.00;100928.97;2075710;28;20427;-64
2023/04/21 04:27:16;;;;;;;21.23;9.60;;;;;;;12.34;100.00;100950.50;2075340;28;20420;-64
2023/04/21 04:28:17;;;;;;;18.30;8.87;;;;;;;12.57;100.00;100980.84;2074111;28;20193;-65
2023/04/21 04:29:17;;;;;;;27.37;8.30;;;;;;;11.94;100.00;100874.16;2074752;28;20678;-64
2023/04/21 04:30:18;;;;;;;21.60;8.47;;;;;;;12.62;100.00;100983.09;2074067;28;20621;-65
2023/04/21 04:31:18;;;;;;;14.83;8.20;;;;;;;12.60;100.00;100983.53;2076119;28;20712;-65
2023/04/21 04:32:19;;;;;;;19.90;8.50;;;;;;;12.62;100.00;100981.13;2078775;28;20204;-65
2023/04/21 04:33:20;;;;;;;25.00;10.20;;;;;;;12.59;100.00;100983.97;2076962;28;20264;-64
2023/04/21 04:34:22;;;;;;;9.20;5.63;;;;;;;12.60;100.00;100989.09;2078936;28;20416;-64
2023/04/21 04:35:22;;;;;;;19.77;10.30;;;;;;;12.64;100.00;100989.78;2076531;28;20239;-64
2023/04/21 04:36:23;;;;;;;9.67;6.97;;;;;;;12.62;100.00;100986.69;2078596;28;21049;-64
2023/04/21 04:37:24;;;;;;;17.20;7.83;;;;;;;12.67;100.00;100983.38;2070616;28;21409;-65
2023/04/21 04:38:25;;;;;;;8.57;6.47;;;;;;;12.71;100.00;100989.59;2074741;28;20523;-64